Shalalth, Canada
Current Conditions -  °F | °C
As of 8:00 PM on Wednesday 22 Oct 2014 (Local Time) from CYIN Reporting Station
Light Rain Light Rain  
Wind Chill: 39°   Ceiling: 3200
Heat Index: 45°   Visibility: 9mi
Dew Point: 37°   Wind: 12mph
Humidity: 76%   Direction: 130°SE
Pressure: 29.5"   Gusts: 18mph
Location:  50.73°N, 122.23°W
Report Text: CYIN 230300Z AUTO 13010G16KT 9SM -RA FEW022 OVC032 07/03 A2950 RMK SLP001 DENSITY ALT 4000FT
Loading
Personal Weather Stations






























Interactive Weather Map New forecast layout! Learn more

10-Day Weather Forecast

Advertisements
Track Severe Weather on mobile